createdAt,value
2019-04-06T00:01:52.220Z,7.90
2019-04-06T00:04:25.030Z,7.80
2019-04-06T00:06:57.913Z,7.80
2019-04-06T00:09:30.728Z,7.80
2019-04-06T00:12:05.510Z,7.90
2019-04-06T00:14:40.347Z,7.70
2019-04-06T00:17:13.161Z,7.70
2019-04-06T00:19:46.008Z,7.60
2019-04-06T00:22:18.792Z,7.60
2019-04-06T00:24:51.630Z,7.70
2019-04-06T00:27:24.704Z,7.60
2019-04-06T00:29:57.773Z,7.60
2019-04-06T00:32:53.029Z,7.50
2019-04-06T00:35:25.841Z,7.50
2019-04-06T00:37:58.628Z,7.60
2019-04-06T00:40:31.469Z,7.60
2019-04-06T00:43:04.276Z,7.60
2019-04-06T00:45:37.114Z,7.50
2019-04-06T00:48:09.922Z,7.50
2019-04-06T00:50:43.100Z,7.50
2019-04-06T00:53:15.914Z,7.50
2019-04-06T00:55:55.668Z,7.50
2019-04-06T00:58:23.458Z,7.50
2019-04-06T01:00:56.307Z,7.40
2019-04-06T01:03:29.165Z,7.50
2019-04-06T01:06:02.072Z,7.50
2019-04-06T01:08:34.958Z,7.40
2019-04-06T01:11:07.786Z,7.40
2019-04-06T01:13:40.717Z,7.50
2019-04-06T01:16:13.781Z,7.50
2019-04-06T01:18:46.576Z,7.50
2019-04-06T01:21:20.506Z,7.40
2019-04-06T01:23:53.281Z,7.50
2019-04-06T01:26:26.093Z,7.40
2019-04-06T01:28:58.981Z,7.30
2019-04-06T01:31:31.809Z,7.40
2019-04-06T01:34:04.581Z,7.30
2019-04-06T01:36:37.416Z,7.30
2019-04-06T01:39:10.224Z,7.30
2019-04-06T01:41:43.051Z,7.40
2019-04-06T01:44:15.976Z,7.40
2019-04-06T01:46:48.815Z,7.50
2019-04-06T01:49:21.619Z,7.40
2019-04-06T01:51:54.435Z,7.40
2019-04-06T01:54:28.255Z,7.40
2019-04-06T01:57:01.084Z,7.50
2019-04-06T01:59:33.887Z,7.60
2019-04-06T02:02:23.092Z,7.60
2019-04-06T02:04:56.120Z,7.60
2019-04-06T02:07:28.993Z,7.50
2019-04-06T02:10:01.797Z,7.60
2019-04-06T02:12:35.953Z,7.60
2019-04-06T02:15:09.262Z,7.60
2019-04-06T02:17:42.111Z,7.50
2019-04-06T02:20:14.899Z,7.50
2019-04-06T02:22:47.859Z,7.40
2019-04-06T02:25:21.784Z,7.40
2019-04-06T02:27:54.592Z,7.30
2019-04-06T02:30:32.792Z,7.30
2019-04-06T02:33:22.325Z,7.30
2019-04-06T02:36:23.476Z,7.30
2019-04-06T02:39:07.696Z,7.20
2019-04-06T02:41:54.265Z,7.20
2019-04-06T02:44:27.110Z,7.10
2019-04-06T02:47:00.113Z,7.00
2019-04-06T02:49:34.049Z,6.90
2019-04-06T02:52:06.871Z,6.80
2019-04-06T02:54:39.897Z,6.70
2019-04-06T02:57:12.817Z,6.60
2019-04-06T02:59:45.625Z,6.60
2019-04-06T03:02:18.555Z,6.60
2019-04-06T03:04:51.325Z,6.60
2019-04-06T03:07:24.292Z,6.60
2019-04-06T03:09:57.988Z,6.50
2019-04-06T03:12:31.845Z,6.50
2019-04-06T03:15:04.750Z,6.30
2019-04-06T03:17:37.574Z,6.30
2019-04-06T03:20:10.611Z,6.30
2019-04-06T03:22:43.408Z,6.30
2019-04-06T03:25:16.197Z,6.30
2019-04-06T03:27:48.994Z,6.30
2019-04-06T03:30:21.782Z,6.30
2019-04-06T03:32:54.618Z,6.40
2019-04-06T03:35:27.839Z,6.60
2019-04-06T03:38:00.751Z,6.60
2019-04-06T03:40:33.921Z,6.50
2019-04-06T03:43:06.739Z,6.30
2019-04-06T03:45:39.527Z,6.30
2019-04-06T03:48:12.369Z,6.30
2019-04-06T03:50:45.409Z,6.20
2019-04-06T03:53:18.301Z,6.20
2019-04-06T03:55:51.308Z,6.10
2019-04-06T03:58:24.199Z,6.00
2019-04-06T04:00:57.080Z,5.90
2019-04-06T04:03:29.919Z,5.80
2019-04-06T04:06:02.754Z,5.80
2019-04-06T04:08:36.928Z,5.70
2019-04-06T04:11:09.737Z,5.80
2019-04-06T04:13:42.585Z,5.90
2019-04-06T04:16:15.403Z,5.80
2019-04-06T04:18:48.225Z,6.00
2019-04-06T04:21:21.016Z,5.90
2019-04-06T04:23:54.118Z,5.70
2019-04-06T04:26:26.987Z,5.80
2019-04-06T04:28:59.985Z,5.80
2019-04-06T04:31:32.777Z,5.70
2019-04-06T04:34:05.823Z,5.70
2019-04-06T04:36:38.613Z,5.60
2019-04-06T04:39:11.553Z,5.60
2019-04-06T04:41:44.354Z,5.60
2019-04-06T04:44:17.245Z,5.60
2019-04-06T04:46:50.025Z,5.50
2019-04-06T04:49:22.830Z,5.40
2019-04-06T04:51:55.628Z,5.30
2019-04-06T04:54:28.401Z,5.40
2019-04-06T04:57:01.212Z,5.60
2019-04-06T04:59:34.028Z,5.60
2019-04-06T05:02:07.084Z,5.70
2019-04-06T05:04:40.047Z,5.70
2019-04-06T05:07:13.037Z,5.70
2019-04-06T05:09:45.863Z,5.50
2019-04-06T05:12:18.659Z,5.50
2019-04-06T05:15:03.279Z,5.50
2019-04-06T05:17:36.242Z,5.30
2019-04-06T05:20:10.825Z,5.30
2019-04-06T05:22:43.613Z,5.40
2019-04-06T05:25:16.420Z,5.80
2019-04-06T05:27:52.570Z,5.90
2019-04-06T05:30:24.207Z,5.90
2019-04-06T05:32:56.987Z,6.00
2019-04-06T05:35:29.795Z,6.20
2019-04-06T05:38:02.726Z,6.20
2019-04-06T05:40:35.762Z,6.20
2019-04-06T05:43:08.614Z,6.40
2019-04-06T05:45:41.445Z,6.40
2019-04-06T05:48:14.224Z,6.20
2019-04-06T05:50:47.121Z,6.30
2019-04-06T05:53:20.500Z,6.80
2019-04-06T05:55:53.496Z,7.10
2019-04-06T05:58:26.381Z,7.50
2019-04-06T06:00:59.368Z,8.00
2019-04-06T06:03:32.109Z,8.30
2019-04-06T06:06:04.978Z,8.70
2019-04-06T06:08:37.959Z,9.30
2019-04-06T06:11:10.814Z,9.70
2019-04-06T06:13:43.649Z,9.70
2019-04-06T06:16:16.464Z,10.00
2019-04-06T06:18:49.291Z,9.70
2019-04-06T06:21:22.177Z,9.70
2019-04-06T06:23:54.964Z,9.80
2019-04-06T06:26:27.917Z,10.10
2019-04-06T06:29:00.737Z,10.30
2019-04-06T06:31:33.661Z,10.20
2019-04-06T06:34:06.604Z,10.50
2019-04-06T06:36:39.458Z,11.00
2019-04-06T06:39:12.287Z,10.90
2019-04-06T06:41:45.108Z,10.70
2019-04-06T06:44:17.965Z,10.70
2019-04-06T06:46:51.015Z,11.20
2019-04-06T06:49:25.200Z,11.00
2019-04-06T06:51:58.237Z,11.20
2019-04-06T06:54:31.355Z,11.80
2019-04-06T06:57:04.201Z,11.50
2019-04-06T06:59:37.022Z,11.50
2019-04-06T07:02:09.839Z,11.60
2019-04-06T07:04:42.708Z,11.30
2019-04-06T07:07:15.539Z,11.70
2019-04-06T07:09:48.378Z,12.10
2019-04-06T07:12:21.187Z,12.30
2019-04-06T07:14:54.056Z,11.90
2019-04-06T07:17:28.019Z,11.60
2019-04-06T07:20:00.851Z,11.30
2019-04-06T07:22:33.685Z,11.30
2019-04-06T07:25:07.120Z,11.10
2019-04-06T07:27:40.163Z,10.60
2019-04-06T07:30:13.275Z,10.40
2019-04-06T07:32:46.041Z,10.30
2019-04-06T07:35:18.875Z,9.90
2019-04-06T07:37:51.702Z,9.70
2019-04-06T07:40:27.104Z,10.00
2019-04-06T07:43:00.037Z,10.00
2019-04-06T07:45:33.132Z,10.20
2019-04-06T07:48:06.037Z,10.20
2019-04-06T07:50:38.854Z,10.30
2019-04-06T07:53:11.694Z,10.30
2019-04-06T07:55:44.570Z,10.50
2019-04-06T07:58:17.429Z,10.60
2019-04-06T08:00:50.344Z,10.60
2019-04-06T08:03:23.195Z,10.70
2019-04-06T08:05:58.265Z,10.80
2019-04-06T08:08:31.230Z,10.90
2019-04-06T08:11:04.077Z,10.90
2019-04-06T08:13:37.090Z,11.20
2019-04-06T08:16:09.922Z,11.50
2019-04-06T08:18:42.942Z,11.90
2019-04-06T08:21:15.826Z,12.20
2019-04-06T08:23:48.696Z,12.80
2019-04-06T08:26:21.656Z,13.70
2019-04-06T08:29:01.822Z,13.70
2019-04-06T08:31:29.569Z,14.40
2019-04-06T08:34:02.710Z,14.60
2019-04-06T08:36:35.731Z,14.40
2019-04-06T08:39:08.680Z,14.70
2019-04-06T08:41:41.760Z,15.20
2019-04-06T08:44:14.919Z,15.40
2019-04-06T08:46:47.912Z,15.50
2019-04-06T08:49:20.968Z,15.10
2019-04-06T08:51:53.979Z,15.10
2019-04-06T08:54:26.990Z,14.90
2019-04-06T08:57:00.028Z,14.60
2019-04-06T08:59:33.358Z,14.60
2019-04-06T09:02:06.542Z,14.40
2019-04-06T09:04:39.791Z,13.90
2019-04-06T09:07:15.936Z,13.90
2019-04-06T09:09:48.932Z,13.80
2019-04-06T09:12:22.161Z,14.00
2019-04-06T09:14:55.561Z,13.90
2019-04-06T09:17:28.911Z,14.00
2019-04-06T09:20:02.172Z,14.50
2019-04-06T09:22:35.628Z,14.20
2019-04-06T09:25:09.192Z,14.20
2019-04-06T09:27:42.438Z,14.10
2019-04-06T09:30:15.629Z,14.30
2019-04-06T09:32:49.021Z,14.50
2019-04-06T09:35:22.610Z,14.20
2019-04-06T09:37:55.781Z,14.40
2019-04-06T09:40:28.979Z,14.80
2019-04-06T09:43:02.298Z,14.70
2019-04-06T09:45:55.583Z,14.30
2019-04-06T09:48:48.213Z,14.30
2019-04-06T09:51:40.832Z,14.50
2019-04-06T09:54:51.965Z,14.40
2019-04-06T09:57:34.214Z,14.60
2019-04-06T10:00:19.370Z,14.40
2019-04-06T10:03:05.663Z,14.20
2019-04-06T10:06:11.982Z,14.10
2019-04-06T10:09:06.159Z,14.20
2019-04-06T10:12:07.767Z,14.20
2019-04-06T10:14:59.595Z,14.60
2019-04-06T10:17:52.285Z,14.60
2019-04-06T10:20:34.716Z,14.80
2019-04-06T10:23:24.580Z,14.70
2019-04-06T10:26:17.169Z,14.80
2019-04-06T10:29:08.265Z,15.20
2019-04-06T10:32:03.661Z,15.50
2019-04-06T10:35:02.487Z,15.40
2019-04-06T10:37:51.632Z,15.30
2019-04-06T10:40:31.353Z,15.40
2019-04-06T10:43:19.801Z,15.60
2019-04-06T10:46:08.967Z,15.70
2019-04-06T10:48:57.195Z,15.90
2019-04-06T10:51:52.522Z,15.80
2019-04-06T10:54:48.174Z,15.90
2019-04-06T10:57:35.837Z,16.00
2019-04-06T11:00:31.396Z,16.00
2019-04-06T11:03:19.369Z,15.70
2019-04-06T11:06:07.128Z,15.70
2019-04-06T11:09:17.931Z,15.50
2019-04-06T11:12:09.245Z,15.30
2019-04-06T11:15:19.619Z,15.80
2019-04-06T11:18:27.196Z,16.10
2019-04-06T11:21:28.822Z,16.60
2019-04-06T11:24:17.233Z,16.70
2019-04-06T11:27:16.616Z,16.20
2019-04-06T11:30:13.704Z,15.90
2019-04-06T11:33:04.812Z,15.80
2019-04-06T11:35:52.401Z,16.00
2019-04-06T11:38:50.760Z,15.70
2019-04-06T11:41:54.559Z,15.60
2019-04-06T11:44:33.904Z,15.60
2019-04-06T11:47:29.148Z,15.50
2019-04-06T11:50:12.817Z,15.50
2019-04-06T11:53:04.873Z,15.60
2019-04-06T11:55:53.835Z,15.30
2019-04-06T11:58:35.284Z,15.30
2019-04-06T12:01:23.737Z,15.30
2019-04-06T12:04:25.214Z,15.20
2019-04-06T12:07:16.822Z,15.40
2019-04-06T12:09:55.118Z,15.50
2019-04-06T12:13:02.763Z,15.60
2019-04-06T12:15:41.151Z,15.70
2019-04-06T12:18:24.405Z,16.10
2019-04-06T12:21:05.703Z,16.10
2019-04-06T12:23:59.823Z,16.30
2019-04-06T12:27:07.266Z,16.20
2019-04-06T12:30:14.858Z,16.20
2019-04-06T12:33:06.007Z,16.10
2019-04-06T12:36:10.657Z,16.10
2019-04-06T12:38:58.369Z,16.20
2019-04-06T12:42:08.596Z,16.10
2019-04-06T12:45:01.618Z,16.20
2019-04-06T12:47:54.089Z,16.30
2019-04-06T12:50:38.326Z,16.20
2019-04-06T12:53:29.697Z,16.50
2019-04-06T12:56:21.084Z,16.50
2019-04-06T12:59:12.137Z,16.60
2019-04-06T13:02:08.210Z,17.00
2019-04-06T13:05:00.632Z,17.00
2019-04-06T13:07:49.217Z,16.80
2019-04-06T13:10:59.981Z,16.60
2019-04-06T13:13:52.653Z,16.50
2019-04-06T13:16:48.575Z,16.80
2019-04-06T13:19:31.537Z,16.80
2019-04-06T13:22:22.338Z,16.80
2019-04-06T13:25:05.643Z,17.00
2019-04-06T13:28:01.332Z,17.00
2019-04-06T13:31:01.773Z,17.00
2019-04-06T13:33:53.267Z,17.30
2019-04-06T13:36:47.532Z,17.50
2019-04-06T13:39:52.160Z,17.60
2019-04-06T13:42:43.821Z,17.60
2019-04-06T13:45:51.448Z,17.50
2019-04-06T13:48:35.666Z,17.60
2019-04-06T13:51:13.466Z,17.40
2019-04-06T13:54:08.812Z,17.50
2019-04-06T13:57:05.975Z,17.50
2019-04-06T13:59:55.482Z,17.70
2019-04-06T14:02:54.601Z,17.80
2019-04-06T14:05:36.740Z,17.90
2019-04-06T14:08:23.250Z,17.80
2019-04-06T14:11:06.576Z,17.80
2019-04-06T14:14:00.112Z,18.00
2019-04-06T14:16:44.484Z,18.00
2019-04-06T14:19:37.239Z,18.10
2019-04-06T14:22:25.669Z,18.20
2019-04-06T14:25:16.948Z,18.30
2019-04-06T14:28:04.306Z,18.40
2019-04-06T14:31:02.552Z,18.40
2019-04-06T14:33:52.034Z,18.30
2019-04-06T14:36:30.918Z,18.20
2019-04-06T14:39:24.638Z,18.30
2019-04-06T14:42:17.100Z,18.30
2019-04-06T14:45:02.378Z,18.40
2019-04-06T14:48:03.906Z,18.30
2019-04-06T14:50:45.611Z,18.40
2019-04-06T14:53:44.470Z,18.50
2019-04-06T14:56:55.367Z,18.50
2019-04-06T14:59:46.739Z,18.50
2019-04-06T15:02:49.587Z,18.50
2019-04-06T15:05:48.067Z,18.10
2019-04-06T15:08:32.617Z,18.10
2019-04-06T15:11:21.856Z,18.10
2019-04-06T15:14:17.071Z,17.80
2019-04-06T15:17:15.372Z,17.70
2019-04-06T15:19:55.510Z,17.40
2019-04-06T15:22:53.743Z,17.50
2019-04-06T15:25:39.016Z,17.30
2019-04-06T15:28:19.792Z,16.90
2019-04-06T15:31:11.110Z,16.80
2019-04-06T15:34:06.247Z,16.80
2019-04-06T15:36:45.839Z,16.80
2019-04-06T15:39:28.755Z,16.90
2019-04-06T15:42:24.282Z,16.90
2019-04-06T15:45:22.562Z,17.00
2019-04-06T15:48:18.067Z,16.90
2019-04-06T15:51:10.644Z,16.90
2019-04-06T15:54:12.493Z,17.00
2019-04-06T15:57:03.870Z,17.00
2019-04-06T15:59:59.243Z,16.90
2019-04-06T16:03:09.732Z,16.90
2019-04-06T16:05:58.191Z,16.80
2019-04-06T16:08:43.793Z,16.90
2019-04-06T16:11:48.166Z,16.90
2019-04-06T16:14:39.098Z,16.90
2019-04-06T16:17:37.945Z,16.90
2019-04-06T16:20:36.259Z,16.90
2019-04-06T16:23:34.724Z,16.90
2019-04-06T16:26:32.983Z,16.90
2019-04-06T16:29:17.763Z,16.80
2019-04-06T16:32:10.482Z,16.80
2019-04-06T16:34:43.796Z,16.80
2019-04-06T16:37:30.227Z,16.80
2019-04-06T16:40:14.733Z,16.80
2019-04-06T16:43:25.555Z,16.70
2019-04-06T16:46:21.400Z,16.70
2019-04-06T16:49:16.426Z,16.50
2019-04-06T16:52:08.788Z,16.40
2019-04-06T16:54:53.087Z,16.30
2019-04-06T16:57:39.153Z,16.20
2019-04-06T17:00:37.661Z,16.10
2019-04-06T17:03:28.633Z,16.00
2019-04-06T17:06:06.528Z,15.90
2019-04-06T17:08:59.001Z,15.90
2019-04-06T17:12:09.599Z,15.90
2019-04-06T17:14:54.429Z,16.00
2019-04-06T17:17:46.875Z,16.00
2019-04-06T17:20:37.989Z,15.80
2019-04-06T17:23:24.898Z,15.70
2019-04-06T17:26:30.776Z,15.70
2019-04-06T17:29:32.922Z,15.70
2019-04-06T17:32:35.453Z,15.50
2019-04-06T17:35:23.304Z,15.40
2019-04-06T17:38:14.673Z,15.40
2019-04-06T17:40:59.933Z,15.30
2019-04-06T17:43:52.536Z,15.20
2019-04-06T17:46:45.020Z,15.10
2019-04-06T17:49:36.284Z,15.00
2019-04-06T17:52:41.178Z,15.00
2019-04-06T17:55:21.383Z,15.00
2019-04-06T17:58:15.175Z,14.80
2019-04-06T18:00:58.235Z,14.70
2019-04-06T18:03:49.610Z,14.50
2019-04-06T18:06:39.379Z,14.20
2019-04-06T18:09:37.897Z,14.00
2019-04-06T18:12:24.141Z,13.80
2019-04-06T18:14:57.020Z,13.60
2019-04-06T18:17:30.008Z,13.50
2019-04-06T18:20:03.892Z,13.40
2019-04-06T18:22:37.899Z,13.20
2019-04-06T18:25:10.843Z,13.10
2019-04-06T18:27:43.691Z,12.90
2019-04-06T18:30:17.119Z,12.80
2019-04-06T18:33:01.038Z,12.70
2019-04-06T18:35:31.746Z,12.60
2019-04-06T18:38:14.037Z,12.60
2019-04-06T18:40:47.111Z,12.50
2019-04-06T18:43:19.935Z,12.40
2019-04-06T18:45:53.218Z,12.40
2019-04-06T18:48:26.072Z,12.30
2019-04-06T18:50:58.981Z,12.30
2019-04-06T18:53:32.134Z,12.20
2019-04-06T18:56:06.942Z,12.20
2019-04-06T18:58:39.943Z,12.20
2019-04-06T19:01:13.378Z,12.20
2019-04-06T19:03:46.382Z,12.30
2019-04-06T19:06:19.304Z,12.30
2019-04-06T19:08:52.495Z,12.40
2019-04-06T19:11:25.824Z,12.30
2019-04-06T19:13:59.013Z,12.20
2019-04-06T19:16:31.943Z,12.10
2019-04-06T19:19:04.980Z,12.00
2019-04-06T19:21:37.821Z,12.00
2019-04-06T19:24:11.201Z,11.90
2019-04-06T19:26:44.221Z,12.00
2019-04-06T19:29:17.266Z,12.00
2019-04-06T19:31:50.351Z,12.00
2019-04-06T19:34:23.217Z,12.10
2019-04-06T19:36:57.947Z,12.10
2019-04-06T19:39:30.811Z,12.00
2019-04-06T19:42:03.883Z,11.90
2019-04-06T19:44:37.245Z,11.70
2019-04-06T19:47:12.527Z,11.60
2019-04-06T19:49:45.673Z,11.60
2019-04-06T19:52:18.801Z,11.50
2019-04-06T19:54:52.225Z,11.60
2019-04-06T19:57:25.107Z,11.80
2019-04-06T19:59:57.972Z,12.20
2019-04-06T20:02:31.210Z,12.50
2019-04-06T20:05:06.142Z,12.70
2019-04-06T20:07:39.149Z,12.60
2019-04-06T20:10:12.182Z,12.60
2019-04-06T20:12:45.168Z,12.40
2019-04-06T20:15:18.566Z,12.30
2019-04-06T20:17:51.810Z,12.20
2019-04-06T20:20:24.713Z,12.20
2019-04-06T20:22:58.073Z,12.20
2019-04-06T20:25:31.095Z,12.30
2019-04-06T20:28:04.129Z,12.20
2019-04-06T20:30:37.544Z,12.20
2019-04-06T20:33:10.763Z,12.30
2019-04-06T20:35:44.012Z,12.30
2019-04-06T20:38:16.998Z,12.30
2019-04-06T20:40:49.828Z,12.40
2019-04-06T20:43:22.943Z,12.40
2019-04-06T20:45:55.802Z,12.20
2019-04-06T20:48:29.353Z,12.10
2019-04-06T20:51:02.687Z,12.10
2019-04-06T20:53:35.769Z,12.10
2019-04-06T20:56:08.639Z,12.10
2019-04-06T20:58:41.511Z,12.10
2019-04-06T21:01:14.733Z,12.30
2019-04-06T21:03:58.774Z,12.30
2019-04-06T21:06:22.271Z,12.40
2019-04-06T21:08:55.144Z,12.50
2019-04-06T21:11:28.004Z,12.60
2019-04-06T21:14:00.956Z,12.60
2019-04-06T21:16:34.313Z,12.60
2019-04-06T21:19:07.333Z,12.70
2019-04-06T21:21:40.436Z,12.70
2019-04-06T21:24:13.318Z,12.60
2019-04-06T21:26:46.802Z,12.60
2019-04-06T21:29:20.038Z,12.40
2019-04-06T21:31:52.906Z,12.40
2019-04-06T21:34:26.062Z,12.40
2019-04-06T21:36:59.204Z,12.30
2019-04-06T21:39:32.394Z,12.20
2019-04-06T21:42:05.695Z,12.20
2019-04-06T21:44:38.858Z,12.20
2019-04-06T21:47:12.153Z,12.00
2019-04-06T21:49:45.019Z,12.00
2019-04-06T21:52:18.083Z,12.00
2019-04-06T21:54:51.091Z,12.00
2019-04-06T21:57:24.519Z,11.90
2019-04-06T21:59:57.476Z,11.90
2019-04-06T22:02:30.827Z,11.80
2019-04-06T22:05:05.668Z,11.70
2019-04-06T22:07:48.685Z,11.90
2019-04-06T22:10:13.941Z,11.80
2019-04-06T22:12:46.864Z,11.90
2019-04-06T22:15:20.187Z,11.70
2019-04-06T22:17:53.336Z,11.70
2019-04-06T22:20:26.406Z,11.70
2019-04-06T22:22:59.397Z,11.60
2019-04-06T22:25:32.259Z,11.40
2019-04-06T22:28:05.130Z,11.50
2019-04-06T22:30:39.498Z,11.40
2019-04-06T22:33:12.869Z,11.40
2019-04-06T22:35:45.818Z,11.40
2019-04-06T22:38:18.795Z,11.40
2019-04-06T22:40:52.026Z,11.50
2019-04-06T22:43:25.018Z,11.70
2019-04-06T22:45:57.928Z,11.80
2019-04-06T22:48:30.873Z,11.80
2019-04-06T22:51:03.763Z,11.80
2019-04-06T22:53:36.574Z,11.90
2019-04-06T22:56:09.951Z,11.90
2019-04-06T22:58:42.851Z,11.90
2019-04-06T23:01:16.377Z,12.00
2019-04-06T23:04:11.386Z,11.90
2019-04-06T23:06:50.290Z,12.00
2019-04-06T23:09:23.178Z,12.00
2019-04-06T23:11:56.001Z,11.90
2019-04-06T23:14:28.949Z,11.80
2019-04-06T23:17:03.743Z,11.80
2019-04-06T23:19:38.588Z,11.70
2019-04-06T23:22:11.536Z,11.60
2019-04-06T23:24:44.686Z,11.60
2019-04-06T23:27:17.661Z,11.50
2019-04-06T23:29:50.840Z,11.40
2019-04-06T23:32:23.906Z,11.40
2019-04-06T23:35:01.201Z,11.30
2019-04-06T23:37:31.551Z,11.10
2019-04-06T23:40:05.398Z,11.10
2019-04-06T23:42:38.824Z,11.00
2019-04-06T23:45:12.743Z,11.00
2019-04-06T23:47:45.679Z,10.80
2019-04-06T23:50:18.787Z,11.00
2019-04-06T23:52:51.625Z,10.90
2019-04-06T23:55:24.776Z,10.80
2019-04-06T23:57:57.974Z,10.80
